Time;durP1;ratioP1;P1;durP2;ratioP2;P2;SDS_P1;SDS_P2;PMS_P1;PMS_P2;Temp;Humidity;BMP_temperature;BMP_pressure;BME280_temperature;BME280_humidity;BME280_pressure;Samples;Min_cycle;Max_cycle;Signal;HPM_P1;HPM_P2
2023/03/13 00:01:46;;;;;;;1.40;0.70;;;10.10;64.60;;;5.39;98.73;95298.69;4968862;28;20026;-50
2023/03/13 00:04:15;;;;;;;1.75;0.60;;;10.20;64.70;;;5.42;98.64;95301.69;4968913;28;20034;-50
2023/03/13 00:06:46;;;;;;;1.63;0.70;;;10.20;64.70;;;5.44;98.62;95298.78;4970225;28;20033;-49
2023/03/13 00:09:16;;;;;;;2.03;0.90;;;10.20;64.70;;;5.44;98.49;95291.66;4968944;28;20034;-48
2023/03/13 00:11:44;;;;;;;2.97;0.88;;;10.20;64.70;;;5.48;98.29;95292.78;4970128;28;20022;-49
2023/03/13 00:14:11;;;;;;;1.23;0.70;;;10.20;64.70;;;5.53;97.75;95292.06;4948407;28;20272;-49
2023/03/13 00:16:38;;;;;;;1.48;0.90;;;10.20;64.70;;;5.60;97.20;95298.00;4962866;28;20027;-49
2023/03/13 00:19:11;;;;;;;2.60;0.65;;;10.20;64.70;;;5.64;96.92;95295.66;4969180;28;20030;-49
2023/03/13 00:21:39;;;;;;;2.65;0.60;;;10.30;64.80;;;5.67;96.29;95281.97;4966211;28;20550;-49
2023/03/13 00:24:10;;;;;;;1.00;0.60;;;10.30;64.70;;;5.70;96.32;95287.59;4966295;28;20054;-51
2023/03/13 00:26:36;;;;;;;1.45;0.82;;;10.30;64.60;;;5.68;96.03;95279.09;4939862;29;20474;-49
2023/03/13 00:29:07;;;;;;;1.08;0.70;;;10.30;64.50;;;5.73;95.90;95281.00;4965437;28;20027;-49
2023/03/13 00:31:33;;;;;;;2.75;1.15;;;10.40;64.60;;;5.77;95.11;95272.38;4933459;28;20030;-50
2023/03/13 00:34:03;;;;;;;1.75;0.68;;;10.40;64.60;;;5.82;94.73;95268.19;4969638;28;20037;-49
2023/03/13 00:36:34;;;;;;;2.45;0.80;;;10.40;64.60;;;5.85;94.36;95265.06;4957162;28;20026;-49
2023/03/13 00:39:01;;;;;;;2.25;0.60;;;10.40;64.40;;;5.85;94.08;95263.22;4964060;28;20096;-49
2023/03/13 00:41:32;;;;;;;0.63;0.50;;;10.50;64.40;;;5.89;93.75;95271.47;4968390;28;20022;-49
2023/03/13 00:43:59;;;;;;;3.33;0.82;;;10.40;64.30;;;5.87;93.92;95269.09;4957649;28;20037;-49
2023/03/13 00:46:29;;;;;;;2.53;0.60;;;10.50;64.30;;;5.87;93.82;95274.38;4950350;28;20454;-49
2023/03/13 00:48:58;;;;;;;1.92;0.90;;;10.50;64.20;;;5.85;93.60;95273.78;4960829;28;20030;-49
2023/03/13 00:51:26;;;;;;;1.70;0.80;;;10.50;64.10;;;5.82;93.39;95263.72;4971845;28;20026;-49
2023/03/13 00:53:55;;;;;;;2.10;0.60;;;10.50;64.10;;;5.81;93.72;95264.75;4971930;28;20042;-49
2023/03/13 00:56:23;;;;;;;1.98;0.70;;;10.50;64.00;;;5.75;93.78;95255.94;4945518;28;20080;-49
2023/03/13 00:58:50;;;;;;;2.10;0.70;;;10.50;63.90;;;5.71;94.15;95262.75;4940082;28;20033;-49
2023/03/13 01:01:34;;;;;;;0.90;0.57;;;10.50;63.80;;;5.68;94.59;95262.44;4952582;28;20029;-50
2023/03/13 01:04:09;;;;;;;1.17;0.73;;;10.50;63.80;;;5.71;94.49;95265.41;4944115;28;20117;-50
2023/03/13 01:06:41;;;;;;;2.55;0.60;;;10.50;63.90;;;5.73;94.49;95262.50;4962272;28;20030;-50
2023/03/13 01:09:13;;;;;;;1.00;0.55;;;10.50;63.90;;;5.75;94.30;95266.53;4971856;28;20026;-49
2023/03/13 01:11:42;;;;;;;0.70;0.50;;;10.50;63.90;;;5.75;94.49;95255.94;4972000;28;20026;-49
2023/03/13 01:14:15;;;;;;;1.00;0.60;;;10.50;63.90;;;5.75;94.33;95263.88;4953276;28;20401;-49
2023/03/13 01:16:41;;;;;;;0.60;0.52;;;10.50;63.90;;;5.76;94.61;95251.47;4971943;28;20026;-49
2023/03/13 01:19:15;;;;;;;1.30;0.60;;;10.50;63.80;;;5.73;95.01;95246.66;4967334;28;20039;-49
2023/03/13 01:21:44;;;;;;;1.77;0.70;;;10.50;63.80;;;5.70;94.71;95242.69;4963944;28;20110;-50
2023/03/13 01:24:18;;;;;;;0.68;0.50;;;10.50;63.70;;;5.73;94.26;95244.81;4936576;28;20053;-51
2023/03/13 01:26:43;;;;;;;0.60;0.52;;;10.50;63.70;;;5.77;93.93;95238.00;4933703;28;20477;-50
2023/03/13 01:29:09;;;;;;;2.72;0.80;;;10.50;63.70;;;5.85;93.78;95241.28;4971060;28;20038;-49
2023/03/13 01:31:36;;;;;;;0.60;0.57;;;10.50;63.80;;;5.86;93.13;95241.06;4971469;28;20022;-52
2023/03/13 01:34:05;;;;;;;2.83;0.70;;;10.60;63.80;;;5.90;92.89;95231.59;4972472;28;20038;-49
2023/03/13 01:36:35;;;;;;;1.23;0.70;;;10.60;63.80;;;5.91;92.69;95243.75;4956030;28;20500;-49
2023/03/13 01:39:07;;;;;;;1.48;0.70;;;10.60;63.80;;;5.91;92.68;95233.19;4953721;28;20026;-49
2023/03/13 01:41:37;;;;;;;0.57;0.50;;;10.60;63.70;;;5.93;92.27;95230.34;4955996;28;20037;-50
2023/03/13 01:44:03;;;;;;;3.15;0.70;;;10.60;63.60;;;5.93;91.69;95225.06;4958270;28;20026;-50
2023/03/13 01:46:30;;;;;;;2.15;0.63;;;10.60;63.60;;;5.94;91.94;95230.06;4961374;28;20025;-51
2023/03/13 01:49:28;;;;;;;1.30;0.70;;;10.70;63.50;;;5.96;91.81;95222.72;4939242;28;20556;-53
2023/03/13 01:52:11;;;;;;;2.75;0.60;;;10.70;63.50;;;5.95;91.46;95218.44;4954926;28;20026;-52
2023/03/13 01:54:55;;;;;;;1.05;0.55;;;10.70;63.40;;;5.93;91.10;95215.28;4971821;28;20030;-55
2023/03/13 01:57:41;;;;;;;1.23;0.50;;;10.70;63.30;;;5.97;90.57;95215.56;4953904;28;20029;-52
2023/03/13 02:00:16;;;;;;;0.60;0.52;;;10.70;63.30;;;6.02;90.42;95205.88;4969994;28;20022;-51
2023/03/13 02:02:58;;;;;;;1.67;0.60;;;10.70;63.20;;;6.01;90.69;95195.53;4961098;28;20097;-53
2023/03/13 02:05:29;;;;;;;1.07;0.40;;;10.80;63.20;;;5.97;90.83;95194.44;4954473;28;20099;-51
2023/03/13 02:08:13;;;;;;;2.45;0.40;;;10.70;63.00;;;5.93;90.93;95191.47;4938357;28;20339;-52
2023/03/13 02:11:21;;;;;;;1.98;0.50;;;10.70;62.90;;;5.90;89.89;95191.94;4936486;28;20389;-54
2023/03/13 02:13:50;;;;;;;0.70;0.50;;;10.70;62.90;;;5.92;90.32;95189.84;4954516;28;20527;-55
2023/03/13 02:16:19;;;;;;;0.68;0.50;;;10.60;62.90;;;5.88;90.28;95190.56;4954586;28;20022;-50
2023/03/13 02:18:46;;;;;;;0.65;0.50;;;10.60;62.80;;;5.86;90.17;95190.00;4955044;28;20656;-54
2023/03/13 02:21:42;;;;;;;1.00;0.60;;;10.60;62.70;;;5.85;90.04;95191.06;4970541;28;20026;-51
2023/03/13 02:25:11;;;;;;;1.73;0.65;;;10.60;62.70;;;5.88;89.93;95185.28;4938156;28;20042;-55
2023/03/13 02:27:38;;;;;;;1.30;0.50;;;10.60;62.80;;;5.89;90.20;95187.69;4957690;28;20029;-51
2023/03/13 02:30:08;;;;;;;1.70;0.50;;;10.60;62.90;;;5.90;89.94;95188.50;4965431;28;20030;-55
2023/03/13 02:32:39;;;;;;;3.15;0.43;;;10.60;62.90;;;5.90;90.00;95185.84;4968854;28;20515;-52
2023/03/13 02:35:15;;;;;;;0.52;0.50;;;10.60;62.80;;;5.90;89.47;95180.56;4953748;28;20496;-49
2023/03/13 02:37:48;;;;;;;1.05;0.40;;;10.60;62.80;;;5.91;89.98;95182.94;4962265;28;20034;-52
2023/03/13 02:40:31;;;;;;;0.98;0.43;;;10.60;62.70;;;5.87;90.35;95168.63;4957991;28;21076;-50
2023/03/13 02:43:17;;;;;;;0.75;0.52;;;10.70;62.70;;;5.87;90.10;95163.34;4954322;28;20026;-52
2023/03/13 02:46:16;;;;;;;0.77;0.50;;;10.70;62.70;;;5.83;91.09;95164.88;4967710;28;20130;-52
2023/03/13 02:48:47;;;;;;;1.23;0.50;;;10.60;62.60;;;5.79;90.67;95153.19;4959616;28;20024;-55
2023/03/13 02:51:38;;;;;;;1.30;0.57;;;10.60;62.60;;;5.77;91.02;95140.22;4957426;28;20037;-55
2023/03/13 02:54:15;;;;;;;0.65;0.52;;;10.60;62.50;;;5.74;90.84;95142.56;4969742;28;20088;-52
2023/03/13 02:56:51;;;;;;;1.30;0.50;;;10.60;62.50;;;5.72;91.06;95144.63;4959917;28;20057;-51
2023/03/13 02:59:17;;;;;;;0.95;0.70;;;10.60;62.50;;;5.66;91.48;95137.69;4966662;28;20037;-53
2023/03/13 03:01:43;;;;;;;1.48;0.60;;;10.60;62.50;;;5.64;91.50;95140.59;4947192;28;20145;-54
2023/03/13 03:04:12;;;;;;;4.22;0.63;;;10.50;62.50;;;5.62;90.99;95140.03;4969268;28;20120;-52
2023/03/13 03:06:38;;;;;;;1.70;0.57;;;10.50;62.50;;;5.60;91.53;95139.44;4953783;28;20152;-53
2023/03/13 03:09:04;;;;;;;0.80;0.55;;;10.50;62.50;;;5.58;91.55;95138.91;4962659;28;20493;-48
2023/03/13 03:11:30;;;;;;;0.70;0.60;;;10.50;62.50;;;5.53;91.50;95136.97;4970905;28;20033;-49
2023/03/13 03:14:05;;;;;;;1.67;0.55;;;10.40;62.50;;;5.57;91.33;95139.94;4964133;28;20371;-53
2023/03/13 03:16:34;;;;;;;0.70;0.43;;;10.40;62.60;;;5.62;90.81;95145.31;4954545;28;20049;-51
2023/03/13 03:19:05;;;;;;;2.75;0.55;;;10.40;62.70;;;5.63;91.18;95146.09;4954617;28;20124;-52
2023/03/13 03:21:32;;;;;;;0.85;0.52;;;10.40;62.60;;;5.65;91.09;95150.09;4956450;28;20115;-49
2023/03/13 03:23:58;;;;;;;1.48;0.47;;;10.50;62.70;;;5.66;91.44;95150.91;4970179;28;20113;-51
2023/03/13 03:26:30;;;;;;;2.55;0.35;;;10.50;62.70;;;5.62;91.34;95147.94;4939537;28;20031;-52
2023/03/13 03:28:56;;;;;;;0.57;0.57;;;10.40;62.70;;;5.66;91.73;95145.59;4946703;28;20393;-52
2023/03/13 03:31:23;;;;;;;1.13;0.60;;;10.40;62.70;;;5.64;91.20;95153.78;4934209;28;20057;-51
2023/03/13 03:33:50;;;;;;;1.48;0.60;;;10.40;62.70;;;5.71;91.58;95151.78;4926481;28;20038;-53
2023/03/13 03:36:21;;;;;;;0.55;0.50;;;10.50;62.70;;;5.77;89.61;95137.59;4969424;28;20025;-50
2023/03/13 03:38:48;;;;;;;0.40;0.40;;;10.50;62.80;;;5.79;89.66;95140.75;4947479;28;20033;-51
2023/03/13 03:41:18;;;;;;;0.88;0.50;;;10.60;62.80;;;5.89;89.71;95142.75;4969509;28;20481;-51
2023/03/13 03:44:00;;;;;;;1.15;0.50;;;10.60;62.80;;;5.97;90.05;95138.91;4966591;28;20060;-50
2023/03/13 03:46:29;;;;;;;0.90;0.70;;;10.70;62.80;;;5.98;89.32;95124.63;4946183;28;20062;-53
2023/03/13 03:48:55;;;;;;;1.02;0.70;;;10.70;62.70;;;6.00;89.06;95130.47;4954392;28;20455;-55
2023/03/13 03:51:22;;;;;;;2.08;0.63;;;10.70;62.50;;;6.03;89.18;95135.28;4941905;29;20030;-50
2023/03/13 03:53:50;;;;;;;2.25;0.70;;;10.80;62.50;;;6.05;88.69;95130.56;4951546;28;20033;-53
2023/03/13 03:56:16;;;;;;;1.95;0.50;;;10.80;62.40;;;6.09;88.60;95136.94;4955187;28;20081;-54
2023/03/13 03:58:42;;;;;;;1.20;0.60;;;10.80;62.30;;;6.12;88.54;95140.94;4945334;29;20031;-53
2023/03/13 04:01:08;;;;;;;2.15;0.50;;;10.90;62.40;;;6.13;88.26;95138.03;4946260;28;20073;-53
2023/03/13 04:03:37;;;;;;;1.48;0.63;;;10.90;62.30;;;6.20;87.58;95132.56;4948998;28;20074;-50
2023/03/13 04:06:03;;;;;;;2.28;0.57;;;10.90;62.20;;;6.28;86.96;95134.78;4936228;29;20081;-52
2023/03/13 04:08:35;;;;;;;4.80;0.63;;;11.00;62.20;;;6.37;86.69;95143.88;4938028;29;20027;-55
2023/03/13 04:11:01;;;;;;;0.70;0.50;;;11.00;62.20;;;6.46;85.40;95138.94;4941174;29;20462;-51
2023/03/13 04:13:33;;;;;;;2.05;0.50;;;11.10;62.10;;;6.56;84.33;95135.59;4932342;29;20026;-52
2023/03/13 04:15:58;;;;;;;1.45;0.50;;;11.10;61.90;;;6.65;82.92;95139.38;4948063;29;20026;-52
2023/03/13 04:18:24;;;;;;;0.85;0.50;;;11.20;61.80;;;6.73;83.04;95145.00;4939616;29;20147;-52
2023/03/13 04:20:58;;;;;;;0.60;0.50;;;11.30;61.70;;;6.81;82.22;95133.19;4908866;29;20027;-49
2023/03/13 04:23:30;;;;;;;1.52;0.60;;;11.40;61.60;;;6.87;84.17;95115.50;4918721;28;20023;-50
2023/03/13 04:25:56;;;;;;;0.80;0.40;;;11.40;61.50;;;6.85;83.36;95112.28;4975019;23;20517;-48
2023/03/13 04:28:22;;;;;;;1.17;0.40;;;11.40;61.20;;;6.89;83.18;95119.50;4940536;28;20432;-49
2023/03/13 04:30:48;;;;;;;0.40;0.40;;;11.50;61.20;;;6.93;83.61;95127.72;4970891;28;20022;-49
2023/03/13 04:33:14;;;;;;;1.85;0.52;;;11.60;61.20;;;6.99;82.88;95113.47;4971394;28;20117;-52
2023/03/13 04:35:43;;;;;;;1.17;0.50;;;11.60;61.10;;;7.05;81.79;95111.66;4969509;28;20021;-49
2023/03/13 04:38:09;;;;;;;3.20;0.50;;;11.60;60.90;;;7.13;81.76;95108.53;4974386;28;20056;-48
2023/03/13 04:40:35;;;;;;;1.25;0.40;;;11.70;60.90;;;7.16;82.02;95108.81;4971622;28;20058;-49
2023/03/13 04:43:04;;;;;;;1.20;0.50;;;11.70;60.80;;;7.20;81.27;95114.41;4975324;28;20455;-49
2023/03/13 04:45:33;;;;;;;1.30;0.50;;;11.80;60.70;;;7.25;80.66;95100.41;4973328;28;20023;-48
2023/03/13 04:48:01;;;;;;;0.80;0.60;;;11.80;60.60;;;7.31;81.12;95102.84;4990414;28;20029;-51
2023/03/13 04:50:27;;;;;;;0.82;0.60;;;11.80;60.40;;;7.34;80.06;95107.63;4974216;28;20076;-48
2023/03/13 04:52:56;;;;;;;0.40;0.40;;;11.90;60.40;;;7.38;80.53;95107.91;4974228;28;20018;-51
2023/03/13 04:55:22;;;;;;;2.15;0.50;;;11.90;60.20;;;7.41;80.28;95108.19;4974758;28;20037;-49
2023/03/13 04:57:51;;;;;;;1.85;0.60;;;12.00;60.20;;;7.44;78.39;95100.78;4973096;28;20025;-53
2023/03/13 05:00:26;;;;;;;0.70;0.45;;;12.00;60.00;;;7.51;79.30;95094.22;4991817;28;20025;-50
2023/03/13 05:02:57;;;;;;;0.55;0.50;;;12.00;59.80;;;7.55;80.04;95089.19;4990004;28;20034;-53
2023/03/13 05:05:23;;;;;;;0.47;0.40;;;12.10;59.90;;;7.57;79.68;95090.53;4991955;28;20392;-49
2023/03/13 05:07:52;;;;;;;0.85;0.63;;;12.10;59.80;;;7.54;79.06;95093.69;4972395;28;20023;-50
2023/03/13 05:10:27;;;;;;;1.70;0.60;;;12.10;59.70;;;7.59;78.85;95088.44;4974847;28;20025;-54
2023/03/13 05:12:53;;;;;;;0.60;0.40;;;12.10;59.60;;;7.64;77.97;95099.03;4991539;28;20026;-51
2023/03/13 05:15:19;;;;;;;1.38;0.50;;;12.10;59.60;;;7.68;76.79;95099.34;4990533;28;20034;-53
2023/03/13 05:17:45;;;;;;;1.35;0.60;;;12.20;59.40;;;7.74;76.52;95098.31;4991635;28;20025;-50
2023/03/13 05:20:13;;;;;;;0.68;0.50;;;12.20;59.30;;;7.77;75.89;95103.09;4991107;28;20030;-50
2023/03/13 05:22:39;;;;;;;0.47;0.40;;;12.20;59.20;;;7.82;74.95;95100.47;4968512;28;20026;-50
2023/03/13 05:25:05;;;;;;;0.77;0.50;;;12.30;59.10;;;7.90;75.19;95101.84;4978373;28;20049;-51
2023/03/13 05:27:34;;;;;;;1.35;0.60;;;12.30;59.00;;;7.90;74.76;95091.22;4957257;28;20050;-49
2023/03/13 05:30:00;;;;;;;2.25;0.43;;;12.40;58.90;;;7.91;73.80;95100.78;4958696;28;20081;-48
2023/03/13 05:32:29;;;;;;;1.25;0.50;;;12.40;58.70;;;7.92;73.52;95090.94;4984632;28;20021;-53
2023/03/13 05:34:58;;;;;;;1.02;0.50;;;12.40;58.50;;;7.93;73.46;95092.53;4990263;28;20044;-49
2023/03/13 05:37:32;;;;;;;0.50;0.40;;;12.50;58.40;;;7.89;72.46;95097.56;4951473;28;20080;-52
2023/03/13 05:39:58;;;;;;;0.88;0.50;;;12.50;58.20;;;7.87;72.61;95091.75;4973285;28;20030;-51
2023/03/13 05:42:27;;;;;;;0.65;0.52;;;12.50;58.10;;;7.84;72.73;95081.66;4991204;28;20028;-52
2023/03/13 05:44:55;;;;;;;0.40;0.40;;;12.50;57.90;;;7.84;73.27;95087.75;4988982;28;20030;-53
2023/03/13 05:47:27;;;;;;;1.58;0.40;;;12.50;57.90;;;7.86;72.85;95076.88;4973916;28;20033;-54
2023/03/13 05:50:03;;;;;;;0.53;0.50;;;12.40;57.70;;;7.86;73.68;95090.91;4989116;28;20060;-50
2023/03/13 05:52:32;;;;;;;0.60;0.50;;;12.40;57.60;;;7.84;72.25;95087.75;4990732;28;20448;-52
2023/03/13 05:55:01;;;;;;;0.40;0.40;;;12.40;57.60;;;7.87;72.53;95091.75;4956216;28;20494;-49
2023/03/13 05:57:34;;;;;;;0.50;0.50;;;12.40;57.60;;;7.88;71.90;95088.03;4972179;28;20022;-48
2023/03/13 06:00:01;;;;;;;0.82;0.50;;;12.40;57.30;;;7.94;71.70;95087.00;4953685;28;20026;-48
2023/03/13 06:02:33;;;;;;;0.55;0.50;;;12.50;57.40;;;8.00;73.17;95087.81;4988654;28;20116;-51
2023/03/13 06:05:05;;;;;;;1.10;0.52;;;12.50;57.40;;;7.98;71.40;95084.63;4982666;28;20030;-51
2023/03/13 06:07:34;;;;;;;2.58;0.60;;;12.50;57.30;;;8.02;70.83;95088.34;4972830;28;20026;-51
2023/03/13 06:10:01;;;;;;;0.55;0.50;;;12.60;57.20;;;8.07;70.70;95086.50;4978631;28;20044;-49
2023/03/13 06:12:26;;;;;;;0.73;0.47;;;12.60;57.10;;;8.15;71.11;95074.59;4988380;28;20029;-52
2023/03/13 06:14:52;;;;;;;0.60;0.50;;;12.60;57.10;;;8.20;70.37;95079.91;4988763;28;20034;-52
2023/03/13 06:17:18;;;;;;;3.17;0.45;;;12.70;57.00;;;8.26;70.63;95080.72;4990530;28;20068;-51
2023/03/13 06:19:46;;;;;;;1.42;0.40;;;12.70;56.90;;;8.31;70.55;95072.78;4983123;28;20499;-52
2023/03/13 06:22:12;;;;;;;0.60;0.40;;;12.80;56.80;;;8.32;69.56;95080.47;4985244;28;20026;-56
2023/03/13 06:24:39;;;;;;;2.08;0.40;;;12.80;56.60;;;8.41;70.08;95075.47;4963140;28;20773;-49
2023/03/13 06:27:06;;;;;;;0.43;0.43;;;12.90;56.60;;;8.48;70.75;95075.22;4948103;28;20037;-53
2023/03/13 06:29:32;;;;;;;0.63;0.50;;;13.00;56.50;;;8.51;69.33;95074.69;4982151;28;20033;-55
2023/03/13 06:31:58;;;;;;;0.68;0.60;;;13.00;56.30;;;8.56;69.73;95075.50;4949134;28;20025;-51
2023/03/13 06:34:27;;;;;;;0.77;0.50;;;13.10;56.30;;;8.60;69.54;95077.63;4957540;28;20037;-53
2023/03/13 06:36:52;;;;;;;0.95;0.47;;;13.10;56.10;;;8.62;69.75;95071.00;4966889;28;20292;-51
2023/03/13 06:39:21;;;;;;;1.05;0.68;;;13.20;56.10;;;8.67;70.38;95075.50;4980154;28;20549;-49
2023/03/13 06:41:47;;;;;;;1.20;0.70;;;13.20;56.10;;;8.66;68.94;95074.72;4967593;28;20022;-52
2023/03/13 06:44:16;;;;;;;0.77;0.60;;;13.30;55.80;;;8.70;69.48;95072.31;4987817;28;20357;-51
2023/03/13 06:46:44;;;;;;;0.70;0.60;;;13.30;55.60;;;8.74;69.40;95068.91;4941976;28;20080;-55
2023/03/13 06:49:13;;;;;;;0.85;0.70;;;13.40;55.70;;;8.81;69.32;95060.66;4987199;28;20022;-50
2023/03/13 06:51:39;;;;;;;0.60;0.50;;;13.40;55.70;;;8.85;68.95;95066.22;4979017;28;20033;-52
2023/03/13 06:54:05;;;;;;;0.88;0.60;;;13.50;55.60;;;8.86;68.93;95067.81;4942928;28;20209;-54
2023/03/13 06:56:31;;;;;;;2.03;0.68;;;13.50;55.40;;;8.93;69.26;95077.13;4956621;28;20535;-54
2023/03/13 06:58:57;;;;;;;0.98;0.60;;;13.60;55.40;;;8.96;67.92;95068.63;4965318;28;20048;-53
2023/03/13 07:01:23;;;;;;;1.52;0.90;;;13.60;55.20;;;9.07;68.05;95079.25;4957665;28;20025;-51
2023/03/13 07:03:51;;;;;;;1.15;0.60;;;13.60;55.10;;;9.11;68.16;95067.00;4969572;28;20076;-51
2023/03/13 07:06:17;;;;;;;0.85;0.65;;;13.70;55.10;;;9.18;67.97;95057.72;4976048;28;20103;-51
2023/03/13 07:08:44;;;;;;;1.88;0.75;;;13.80;55.00;;;9.31;66.91;95053.72;4952926;28;20062;-51
2023/03/13 07:11:13;;;;;;;0.60;0.60;;;13.90;54.80;;;9.42;67.52;95044.63;4989029;28;20492;-50
2023/03/13 07:13:40;;;;;;;2.50;0.52;;;14.10;54.60;;;9.55;67.27;95051.22;4986561;28;20515;-51
2023/03/13 07:16:11;;;;;;;0.85;0.60;;;14.20;54.50;;;9.68;67.35;95039.22;4988580;28;20024;-51
2023/03/13 07:18:43;;;;;;;1.55;0.70;;;14.40;54.40;;;9.79;66.44;95035.47;4971270;28;20029;-50
2023/03/13 07:21:11;;;;;;;1.13;0.70;;;14.50;54.10;;;9.90;66.97;95044.19;4987184;28;20018;-49
2023/03/13 07:23:38;;;;;;;2.10;0.73;;;14.70;54.00;;;10.03;66.23;95050.78;4980598;28;20057;-51
2023/03/13 07:26:14;;;;;;;1.38;0.70;;;14.90;53.80;;;10.15;65.62;95052.09;4967815;28;20519;-48
2023/03/13 07:28:41;;;;;;;2.13;0.68;;;15.00;53.60;;;10.29;65.07;95038.19;4984640;28;20370;-51
2023/03/13 07:31:17;;;;;;;0.50;0.50;;;15.20;53.40;;;10.44;65.15;95047.97;4972495;28;20045;-48
2023/03/13 07:33:44;;;;;;;0.77;0.68;;;15.40;53.20;;;10.60;65.51;95050.22;4953910;28;20451;-48
2023/03/13 07:36:16;;;;;;;1.20;0.73;;;15.50;53.10;;;10.74;65.85;95052.25;4971707;28;20018;-48
2023/03/13 07:38:51;;;;;;;0.98;0.77;;;15.70;53.00;;;10.83;65.29;95050.59;4969917;28;20029;-51
2023/03/13 07:41:18;;;;;;;1.05;0.60;;;15.80;52.90;;;10.96;64.05;95054.47;4955441;28;20045;-54
2023/03/13 07:43:45;;;;;;;1.10;0.77;;;15.90;52.80;;;10.99;63.52;95057.38;4953628;28;20516;-50
2023/03/13 07:46:18;;;;;;;0.93;0.65;;;16.00;52.60;;;11.05;63.02;95061.59;4955527;28;20045;-50
2023/03/13 07:48:46;;;;;;;1.35;0.70;;;16.20;52.10;;;11.16;61.84;95066.84;4971278;28;20029;-51
2023/03/13 07:51:23;;;;;;;1.65;0.65;;;16.40;51.90;;;11.08;61.36;95058.38;4954011;28;20026;-55
2023/03/13 07:53:51;;;;;;;1.25;0.90;;;16.60;51.40;;;11.17;61.04;95055.13;4971125;28;20138;-52
2023/03/13 07:56:29;;;;;;;1.65;0.60;;;16.70;51.10;;;11.16;60.72;95062.31;4965684;28;20111;-48
2023/03/13 07:59:01;;;;;;;1.15;0.90;;;16.90;50.50;;;11.33;62.00;95059.22;4992877;28;20033;-49
2023/03/13 08:01:38;;;;;;;0.98;0.60;;;17.00;50.10;;;11.51;60.40;95050.50;4979004;28;20029;-49
2023/03/13 08:04:04;;;;;;;2.88;0.85;;;17.10;50.20;;;11.67;61.12;95050.34;4968466;28;20029;-50
2023/03/13 08:06:35;;;;;;;0.95;0.80;;;17.30;49.90;;;11.88;59.72;95046.41;4962732;28;20104;-49
2023/03/13 08:09:07;;;;;;;1.80;1.00;;;17.60;49.30;;;12.06;58.49;95038.69;4987873;28;20038;-49
2023/03/13 08:11:40;;;;;;;0.90;0.70;;;17.70;49.00;;;12.20;59.10;95042.25;4975683;28;20021;-48
2023/03/13 08:14:06;;;;;;;0.70;0.70;;;17.80;49.10;;;12.38;57.01;95035.31;4973400;28;20034;-55
2023/03/13 08:16:41;;;;;;;3.03;0.90;;;18.00;49.50;;;12.59;59.18;95028.59;4975242;28;20244;-55
2023/03/13 08:19:08;;;;;;;3.25;1.50;;;18.20;48.60;;;12.63;56.01;95029.63;4974404;28;20282;-49
2023/03/13 08:21:37;;;;;;;4.03;1.30;;;18.40;48.20;;;12.60;56.08;95037.44;4991362;28;20388;-55
2023/03/13 08:24:10;;;;;;;1.02;0.85;;;18.40;47.70;;;12.67;57.13;95027.97;4992391;28;20464;-56
2023/03/13 08:26:41;;;;;;;1.23;0.70;;;18.50;47.30;;;12.69;56.23;95028.47;4961769;28;20040;-54
2023/03/13 08:29:12;;;;;;;2.28;0.70;;;18.50;47.00;;;12.68;55.34;95026.06;4957791;28;20536;-54
2023/03/13 08:31:51;;;;;;;0.65;0.65;;;18.50;46.80;;;12.68;56.29;95021.53;4963069;28;20029;-55
2023/03/13 08:34:18;;;;;;;0.80;0.80;;;18.60;46.50;;;12.69;55.96;95023.13;4973147;28;20040;-56
2023/03/13 08:36:45;;;;;;;3.08;1.05;;;18.60;46.30;;;12.91;55.06;95019.03;4964879;28;20026;-53
2023/03/13 08:39:18;;;;;;;1.45;0.77;;;18.80;46.20;;;13.22;54.69;95007.81;4969631;28;20560;-54
2023/03/13 08:41:45;;;;;;;2.42;0.77;;;19.10;46.00;;;13.26;52.93;95008.84;4988467;28;20034;-53
2023/03/13 08:44:17;;;;;;;0.95;0.70;;;19.20;45.80;;;13.33;53.05;95001.22;4972943;28;20025;-50
2023/03/13 08:46:44;;;;;;;3.28;0.52;;;19.40;45.40;;;13.47;54.10;94995.88;4986555;28;20029;-52
2023/03/13 08:49:16;;;;;;;1.45;0.82;;;19.50;45.10;;;13.47;52.39;94993.19;4958863;28;20018;-55
2023/03/13 08:51:45;;;;;;;1.23;0.70;;;19.50;44.80;;;13.48;54.44;95000.94;4984447;28;20022;-53
2023/03/13 08:54:11;;;;;;;0.90;0.70;;;19.40;44.80;;;13.43;53.30;94998.34;4991859;28;20085;-51
2023/03/13 16:48:39;;;;;;;0.80;0.70;;;25.80;29.40;;;19.19;41.70;93996.31;4973196;23;20055;-55
2023/03/13 16:51:05;;;;;;;3.83;0.70;;;25.20;29.80;;;18.88;43.34;93989.16;4904367;29;20046;-54
2023/03/13 16:53:31;;;;;;;0.70;0.70;;;24.70;30.30;;;18.55;43.36;93998.50;4896325;29;20054;-57
2023/03/13 16:55:56;;;;;;;0.55;0.50;;;24.30;30.90;;;18.31;46.55;93993.34;4893415;29;20150;-50
2023/03/13 16:58:22;;;;;;;1.58;0.60;;;23.90;31.60;;;18.01;45.69;93985.72;4874128;29;20028;-51
2023/03/13 17:00:48;;;;;;;1.55;0.60;;;23.50;32.20;;;17.76;43.19;93987.81;4893795;29;20308;-53
2023/03/13 17:03:14;;;;;;;2.25;0.60;;;23.20;32.40;;;17.57;44.28;93988.50;4895541;29;20028;-52
2023/03/13 17:05:40;;;;;;;2.10;0.70;;;22.80;32.70;;;17.29;43.62;93973.19;4897580;29;20027;-56
2023/03/13 17:08:06;;;;;;;0.65;0.52;;;22.50;32.90;;;17.17;43.67;93969.78;4897124;29;20024;-51
2023/03/13 17:10:33;;;;;;;0.80;0.60;;;22.20;33.30;;;17.01;44.45;93951.72;4896812;29;20069;-48
2023/03/13 17:12:59;;;;;;;0.50;0.50;;;21.90;33.60;;;16.79;46.65;93944.22;4895674;29;20095;-53
2023/03/13 17:15:27;;;;;;;2.17;0.50;;;21.70;34.10;;;16.48;45.73;93942.94;4896888;29;20107;-48
2023/03/13 17:17:54;;;;;;;1.08;0.60;;;21.40;34.40;;;16.28;47.08;93933.94;4893529;29;20024;-51
2023/03/13 17:20:29;;;;;;;2.65;1.00;;;21.10;34.80;;;16.18;48.52;93921.78;4893679;29;20157;-49
2023/03/13 17:22:55;;;;;;;1.65;0.70;;;20.90;35.30;;;15.95;48.22;93916.13;4891874;29;20024;-48
2023/03/13 17:25:22;;;;;;;1.20;0.77;;;20.70;35.60;;;15.86;49.30;93901.25;4891708;29;20080;-48
2023/03/13 17:27:48;;;;;;;3.00;1.00;;;20.50;36.00;;;15.76;49.43;93904.38;4892562;29;20455;-48
2023/03/13 17:30:25;;;;;;;0.80;0.80;;;20.30;36.40;;;15.60;48.67;93907.72;4891534;29;20113;-51
2023/03/13 17:32:52;;;;;;;1.00;0.70;;;20.00;36.80;;;15.48;49.04;93908.53;4892102;29;20165;-48
2023/03/13 17:35:20;;;;;;;0.85;0.63;;;19.90;37.00;;;15.35;49.95;93903.47;4892827;29;20074;-51
2023/03/13 17:37:47;;;;;;;3.25;0.77;;;19.70;38.00;;;15.25;50.72;93900.13;4891531;29;20039;-49
2023/03/13 17:40:20;;;;;;;0.85;0.63;;;19.50;37.70;;;15.01;51.44;93897.41;4876598;29;20517;-58
2023/03/13 17:42:46;;;;;;;1.58;0.70;;;19.40;38.10;;;14.84;51.70;93897.63;4891052;29;20039;-48
2023/03/13 17:45:12;;;;;;;1.88;0.63;;;19.20;38.20;;;14.73;51.27;93902.63;4893451;29;20040;-50
2023/03/13 17:47:40;;;;;;;1.25;0.80;;;19.00;38.60;;;14.78;50.33;93892.44;4893690;29;20510;-51
2023/03/13 17:50:26;;;;;;;1.92;0.60;;;18.90;38.80;;;14.79;49.78;93886.00;4879356;29;20490;-51
2023/03/13 17:52:54;;;;;;;2.17;0.90;;;18.90;39.10;;;14.72;50.89;93890.31;4885967;29;20032;-50
2023/03/13 17:55:20;;;;;;;2.38;0.80;;;18.80;39.10;;;14.57;52.65;93894.41;4895062;29;20024;-49
2023/03/13 17:57:48;;;;;;;1.50;0.77;;;18.70;39.30;;;14.41;51.85;93880.03;4899542;29;20423;-48
2023/03/13 18:00:29;;;;;;;1.33;0.70;;;18.60;39.50;;;14.26;53.57;93870.72;4895028;29;20032;-50
2023/03/13 18:02:55;;;;;;;2.58;1.08;;;18.40;39.90;;;14.09;52.80;93871.66;4895732;29;20024;-48
2023/03/13 18:05:21;;;;;;;2.00;0.80;;;18.30;39.80;;;13.99;53.88;93866.69;4895225;29;20063;-48
2023/03/13 18:07:48;;;;;;;1.52;0.77;;;18.20;40.10;;;13.88;53.87;93871.63;4894335;29;20246;-48
2023/03/13 18:10:24;;;;;;;1.77;0.85;;;18.00;40.40;;;13.85;54.32;93858.91;4894007;29;20032;-51
2023/03/13 18:12:52;;;;;;;2.13;0.77;;;18.00;40.90;;;13.89;54.62;93863.31;4895019;29;20115;-51
2023/03/13 18:15:22;;;;;;;4.53;0.80;;;17.90;41.00;;;13.83;54.98;93859.25;4895158;29;20090;-48
2023/03/13 18:17:50;;;;;;;2.28;0.90;;;17.80;41.20;;;13.80;54.15;93856.44;4893905;29;20047;-51
2023/03/13 18:20:29;;;;;;;2.13;1.00;;;17.80;41.30;;;13.74;54.68;93850.50;4878239;29;20035;-49
2023/03/13 18:22:58;;;;;;;4.55;1.40;;;17.70;41.50;;;13.60;54.50;93849.97;4884049;29;20028;-50
2023/03/13 18:25:26;;;;;;;2.40;1.35;;;17.60;41.40;;;13.51;53.03;93851.94;4894449;29;20082;-50
2023/03/13 18:27:52;;;;;;;1.67;1.00;;;17.60;41.40;;;13.43;53.54;93858.88;4895478;29;20411;-48